<?xml version="1.0" encoding="UTF-8" standalone="no" ?>
<gpx xmlns="http://www.topografix.com/GPX/1/1" xmlns:xsi="http://www.w3.org/2001/XMLSchema-instance" xsi:schemaLocation="http://www.topografix.com/GPX/1/1 http://www.topografix.com/GPX/1/1/gpx.xsd" version="1.1" creator="VisuGPX - https://www.visugpx.com">
  <metadata>
    <name>2020-12-13 le Platzerwasel</name>
    <desc><![CDATA[File with points/tracks from Locus Map/3.49.1]]></desc>
  </metadata>
  <trk>
    <name><![CDATA[2020-12-13 le Platzerwasel]]></name>
    <extensions>
      <line xmlns="http://www.topografix.com/GPX/gpx_style/0/2">
        <color>0000FF</color>
        <opacity>0.59</opacity>
        <width>6.0</width>
      </line>
    </extensions>
    <trkseg>
      <trkpt lat="47.96953" lon="7.0434">
        <ele>1134.2</ele>
        <time>2020-12-13T10:24:48.000Z</time>
      </trkpt>
      <trkpt lat="47.96984" lon="7.0432">
        <ele>1136.27</ele>
        <time>2020-12-13T10:24:53.000Z</time>
      </trkpt>
      <trkpt lat="47.96958" lon="7.04318">
        <ele>1142.52</ele>
        <time>2020-12-13T10:24:58.000Z</time>
      </trkpt>
      <trkpt lat="47.96947" lon="7.04317">
        <ele>1144.07</ele>
        <time>2020-12-13T10:25:03.000Z</time>
      </trkpt>
      <trkpt lat="47.96952" lon="7.04305">
        <ele>1147.42</ele>
        <time>2020-12-13T10:25:11.000Z</time>
      </trkpt>
      <trkpt lat="47.96956" lon="7.04292">
        <ele>1155.57</ele>
        <time>2020-12-13T10:25:19.000Z</time>
      </trkpt>
      <trkpt lat="47.96952" lon="7.04279">
        <ele>1164.39</ele>
        <time>2020-12-13T10:25:32.000Z</time>
      </trkpt>
      <trkpt lat="47.96942" lon="7.04283">
        <ele>1162.67</ele>
        <time>2020-12-13T10:25:40.000Z</time>
      </trkpt>
      <trkpt lat="47.96932" lon="7.04276">
        <ele>1155.54</ele>
        <time>2020-12-13T10:26:00.000Z</time>
      </trkpt>
      <trkpt lat="47.96923" lon="7.04269">
        <ele>1154.34</ele>
        <time>2020-12-13T10:26:10.000Z</time>
      </trkpt>
      <trkpt lat="47.96916" lon="7.04259">
        <ele>1153.16</ele>
        <time>2020-12-13T10:26:18.000Z</time>
      </trkpt>
      <trkpt lat="47.96909" lon="7.04249">
        <ele>1152.87</ele>
        <time>2020-12-13T10:26:26.000Z</time>
      </trkpt>
      <trkpt lat="47.96902" lon="7.04239">
        <ele>1151.52</ele>
        <time>2020-12-13T10:26:35.000Z</time>
      </trkpt>
      <trkpt lat="47.96894" lon="7.04232">
        <ele>1149.21</ele>
        <time>2020-12-13T10:26:47.000Z</time>
      </trkpt>
      <trkpt lat="47.96887" lon="7.04224">
        <ele>1148.7</ele>
        <time>2020-12-13T10:27:55.000Z</time>
      </trkpt>
      <trkpt lat="47.96877" lon="7.04225">
        <ele>1146.8</ele>
        <time>2020-12-13T10:28:14.000Z</time>
      </trkpt>
      <trkpt lat="47.96868" lon="7.0421">
        <ele>1147.63</ele>
        <time>2020-12-13T10:28:19.000Z</time>
      </trkpt>
      <trkpt lat="47.9685" lon="7.04214">
        <ele>1148.18</ele>
        <time>2020-12-13T10:28:24.000Z</time>
      </trkpt>
      <trkpt lat="47.9684" lon="7.04214">
        <ele>1154.54</ele>
        <time>2020-12-13T10:28:41.000Z</time>
      </trkpt>
      <trkpt lat="47.96834" lon="7.04205">
        <ele>1157.83</ele>
        <time>2020-12-13T10:28:48.000Z</time>
      </trkpt>
      <trkpt lat="47.96825" lon="7.04198">
        <ele>1159.92</ele>
        <time>2020-12-13T10:28:56.000Z</time>
      </trkpt>
      <trkpt lat="47.96815" lon="7.04192">
        <ele>1161.68</ele>
        <time>2020-12-13T10:29:05.000Z</time>
      </trkpt>
      <trkpt lat="47.96806" lon="7.04188">
        <ele>1162.97</ele>
        <time>2020-12-13T10:29:12.000Z</time>
      </trkpt>
      <trkpt lat="47.96797" lon="7.04185">
        <ele>1163.84</ele>
        <time>2020-12-13T10:29:22.000Z</time>
      </trkpt>
      <trkpt lat="47.96788" lon="7.04178">
        <ele>1162.39</ele>
        <time>2020-12-13T10:29:32.000Z</time>
      </trkpt>
      <trkpt lat="47.96779" lon="7.0417">
        <ele>1160.8</ele>
        <time>2020-12-13T10:29:41.000Z</time>
      </trkpt>
      <trkpt lat="47.96771" lon="7.04165">
        <ele>1158.03</ele>
        <time>2020-12-13T10:29:50.000Z</time>
      </trkpt>
      <trkpt lat="47.96762" lon="7.0416">
        <ele>1156.86</ele>
        <time>2020-12-13T10:29:58.000Z</time>
      </trkpt>
      <trkpt lat="47.96754" lon="7.04152">
        <ele>1156.33</ele>
        <time>2020-12-13T10:30:08.000Z</time>
      </trkpt>
      <trkpt lat="47.96745" lon="7.04146">
        <ele>1155.55</ele>
        <time>2020-12-13T10:30:18.000Z</time>
      </trkpt>
      <trkpt lat="47.96737" lon="7.04139">
        <ele>1155.16</ele>
        <time>2020-12-13T10:30:28.000Z</time>
      </trkpt>
      <trkpt lat="47.96727" lon="7.04135">
        <ele>1151.76</ele>
        <time>2020-12-13T10:30:46.000Z</time>
      </trkpt>
      <trkpt lat="47.96717" lon="7.04132">
        <ele>1149.44</ele>
        <time>2020-12-13T10:30:57.000Z</time>
      </trkpt>
      <trkpt lat="47.96708" lon="7.04129">
        <ele>1149.5</ele>
        <time>2020-12-13T10:31:06.000Z</time>
      </trkpt>
      <trkpt lat="47.96699" lon="7.04122">
        <ele>1150.3</ele>
        <time>2020-12-13T10:31:31.000Z</time>
      </trkpt>
      <trkpt lat="47.96692" lon="7.04114">
        <ele>1152.01</ele>
        <time>2020-12-13T10:31:43.000Z</time>
      </trkpt>
      <trkpt lat="47.96683" lon="7.04108">
        <ele>1151.91</ele>
        <time>2020-12-13T10:31:57.000Z</time>
      </trkpt>
      <trkpt lat="47.96674" lon="7.04101">
        <ele>1152.43</ele>
        <time>2020-12-13T10:32:11.000Z</time>
      </trkpt>
      <trkpt lat="47.96667" lon="7.04094">
        <ele>1155.34</ele>
        <time>2020-12-13T10:32:22.000Z</time>
      </trkpt>
      <trkpt lat="47.96658" lon="7.04087">
        <ele>1157.5</ele>
        <time>2020-12-13T10:32:34.000Z</time>
      </trkpt>
      <trkpt lat="47.9665" lon="7.04082">
        <ele>1159.1</ele>
        <time>2020-12-13T10:32:47.000Z</time>
      </trkpt>
      <trkpt lat="47.96642" lon="7.04075">
        <ele>1160.18</ele>
        <time>2020-12-13T10:32:58.000Z</time>
      </trkpt>
      <trkpt lat="47.96633" lon="7.04074">
        <ele>1163.97</ele>
        <time>2020-12-13T10:33:20.000Z</time>
      </trkpt>
      <trkpt lat="47.96625" lon="7.04068">
        <ele>1165.42</ele>
        <time>2020-12-13T10:33:33.000Z</time>
      </trkpt>
      <trkpt lat="47.96615" lon="7.04064">
        <ele>1166.78</ele>
        <time>2020-12-13T10:33:49.000Z</time>
      </trkpt>
      <trkpt lat="47.96607" lon="7.04058">
        <ele>1166.28</ele>
        <time>2020-12-13T10:34:03.000Z</time>
      </trkpt>
      <trkpt lat="47.96599" lon="7.04052">
        <ele>1167.6</ele>
        <time>2020-12-13T10:34:17.000Z</time>
      </trkpt>
      <trkpt lat="47.96591" lon="7.04043">
        <ele>1170.23</ele>
        <time>2020-12-13T10:34:35.000Z</time>
      </trkpt>
      <trkpt lat="47.96583" lon="7.04036">
        <ele>1172.39</ele>
        <time>2020-12-13T10:34:50.000Z</time>
      </trkpt>
      <trkpt lat="47.96575" lon="7.0403">
        <ele>1173.51</ele>
        <time>2020-12-13T10:35:03.000Z</time>
      </trkpt>
      <trkpt lat="47.96566" lon="7.04025">
        <ele>1175.19</ele>
        <time>2020-12-13T10:35:16.000Z</time>
      </trkpt>
      <trkpt lat="47.96559" lon="7.04018">
        <ele>1178.87</ele>
        <time>2020-12-13T10:35:36.000Z</time>
      </trkpt>
      <trkpt lat="47.96551" lon="7.04009">
        <ele>1181.76</ele>
        <time>2020-12-13T10:35:54.000Z</time>
      </trkpt>
      <trkpt lat="47.96543" lon="7.04002">
        <ele>1184.27</ele>
        <time>2020-12-13T10:36:12.000Z</time>
      </trkpt>
      <trkpt lat="47.96535" lon="7.03995">
        <ele>1184.93</ele>
        <time>2020-12-13T10:36:35.000Z</time>
      </trkpt>
      <trkpt lat="47.96527" lon="7.03988">
        <ele>1186.9</ele>
        <time>2020-12-13T10:36:56.000Z</time>
      </trkpt>
      <trkpt lat="47.9652" lon="7.03978">
        <ele>1189.2</ele>
        <time>2020-12-13T10:37:09.000Z</time>
      </trkpt>
      <trkpt lat="47.96513" lon="7.03969">
        <ele>1192.15</ele>
        <time>2020-12-13T10:37:25.000Z</time>
      </trkpt>
      <trkpt lat="47.96505" lon="7.03961">
        <ele>1196.37</ele>
        <time>2020-12-13T10:37:44.000Z</time>
      </trkpt>
      <trkpt lat="47.96497" lon="7.03954">
        <ele>1200.16</ele>
        <time>2020-12-13T10:38:01.000Z</time>
      </trkpt>
      <trkpt lat="47.96489" lon="7.03949">
        <ele>1203.17</ele>
        <time>2020-12-13T10:38:17.000Z</time>
      </trkpt>
      <trkpt lat="47.9648" lon="7.03945">
        <ele>1205</ele>
        <time>2020-12-13T10:38:29.000Z</time>
      </trkpt>
      <trkpt lat="47.96471" lon="7.03942">
        <ele>1206.23</ele>
        <time>2020-12-13T10:38:42.000Z</time>
      </trkpt>
      <trkpt lat="47.96461" lon="7.0394">
        <ele>1206.53</ele>
        <time>2020-12-13T10:38:54.000Z</time>
      </trkpt>
      <trkpt lat="47.96452" lon="7.03938">
        <ele>1205.42</ele>
        <time>2020-12-13T10:39:05.000Z</time>
      </trkpt>
      <trkpt lat="47.96442" lon="7.03934">
        <ele>1205.13</ele>
        <time>2020-12-13T10:39:17.000Z</time>
      </trkpt>
      <trkpt lat="47.96433" lon="7.03931">
        <ele>1205.91</ele>
        <time>2020-12-13T10:39:35.000Z</time>
      </trkpt>
      <trkpt lat="47.96424" lon="7.0393">
        <ele>1207.07</ele>
        <time>2020-12-13T10:39:46.000Z</time>
      </trkpt>
      <trkpt lat="47.96415" lon="7.03934">
        <ele>1207.73</ele>
        <time>2020-12-13T10:39:58.000Z</time>
      </trkpt>
      <trkpt lat="47.96407" lon="7.03942">
        <ele>1208.08</ele>
        <time>2020-12-13T10:40:09.000Z</time>
      </trkpt>
      <trkpt lat="47.96403" lon="7.03954">
        <ele>1210.36</ele>
        <time>2020-12-13T10:42:05.000Z</time>
      </trkpt>
      <trkpt lat="47.96398" lon="7.03966">
        <ele>1208.5</ele>
        <time>2020-12-13T10:42:19.000Z</time>
      </trkpt>
      <trkpt lat="47.96396" lon="7.0398">
        <ele>1207.9</ele>
        <time>2020-12-13T10:42:31.000Z</time>
      </trkpt>
      <trkpt lat="47.96387" lon="7.03982">
        <ele>1205.1</ele>
        <time>2020-12-13T10:42:54.000Z</time>
      </trkpt>
      <trkpt lat="47.96378" lon="7.03976">
        <ele>1203.99</ele>
        <time>2020-12-13T10:43:01.000Z</time>
      </trkpt>
      <trkpt lat="47.9637" lon="7.03968">
        <ele>1202.56</ele>
        <time>2020-12-13T10:43:11.000Z</time>
      </trkpt>
      <trkpt lat="47.96363" lon="7.03961">
        <ele>1202.04</ele>
        <time>2020-12-13T10:43:20.000Z</time>
      </trkpt>
      <trkpt lat="47.96354" lon="7.03957">
        <ele>1202.02</ele>
        <time>2020-12-13T10:43:31.000Z</time>
      </trkpt>
      <trkpt lat="47.96345" lon="7.03954">
        <ele>1202.2</ele>
        <time>2020-12-13T10:43:44.000Z</time>
      </trkpt>
      <trkpt lat="47.96337" lon="7.03948">
        <ele>1202.58</ele>
        <time>2020-12-13T10:43:55.000Z</time>
      </trkpt>
      <trkpt lat="47.96329" lon="7.03942">
        <ele>1202.54</ele>
        <time>2020-12-13T10:44:05.000Z</time>
      </trkpt>
      <trkpt lat="47.96321" lon="7.03933">
        <ele>1200.5</ele>
        <time>2020-12-13T10:44:18.000Z</time>
      </trkpt>
      <trkpt lat="47.96312" lon="7.0393">
        <ele>1200.43</ele>
        <time>2020-12-13T10:44:28.000Z</time>
      </trkpt>
      <trkpt lat="47.96303" lon="7.03926">
        <ele>1201.37</ele>
        <time>2020-12-13T10:44:38.000Z</time>
      </trkpt>
      <trkpt lat="47.96294" lon="7.0392">
        <ele>1200.48</ele>
        <time>2020-12-13T10:44:50.000Z</time>
      </trkpt>
      <trkpt lat="47.96285" lon="7.03917">
        <ele>1200.67</ele>
        <time>2020-12-13T10:45:01.000Z</time>
      </trkpt>
      <trkpt lat="47.96277" lon="7.03912">
        <ele>1203.46</ele>
        <time>2020-12-13T10:45:16.000Z</time>
      </trkpt>
      <trkpt lat="47.96268" lon="7.03908">
        <ele>1206.99</ele>
        <time>2020-12-13T10:45:34.000Z</time>
      </trkpt>
      <trkpt lat="47.9626" lon="7.03904">
        <ele>1211.03</ele>
        <time>2020-12-13T10:45:53.000Z</time>
      </trkpt>
      <trkpt lat="47.96251" lon="7.03899">
        <ele>1215.49</ele>
        <time>2020-12-13T10:46:13.000Z</time>
      </trkpt>
      <trkpt lat="47.96242" lon="7.03894">
        <ele>1217.89</ele>
        <time>2020-12-13T10:46:33.000Z</time>
      </trkpt>
      <trkpt lat="47.96234" lon="7.03887">
        <ele>1220.1</ele>
        <time>2020-12-13T10:46:47.000Z</time>
      </trkpt>
      <trkpt lat="47.96225" lon="7.03887">
        <ele>1219.77</ele>
        <time>2020-12-13T10:52:05.000Z</time>
      </trkpt>
      <trkpt lat="47.96216" lon="7.03885">
        <ele>1217.96</ele>
        <time>2020-12-13T10:54:02.000Z</time>
      </trkpt>
      <trkpt lat="47.96207" lon="7.03884">
        <ele>1219.08</ele>
        <time>2020-12-13T10:54:14.000Z</time>
      </trkpt>
      <trkpt lat="47.96197" lon="7.03883">
        <ele>1218.86</ele>
        <time>2020-12-13T10:54:24.000Z</time>
      </trkpt>
      <trkpt lat="47.96188" lon="7.03886">
        <ele>1218.81</ele>
        <time>2020-12-13T10:54:34.000Z</time>
      </trkpt>
      <trkpt lat="47.96179" lon="7.03886">
        <ele>1219.29</ele>
        <time>2020-12-13T10:54:43.000Z</time>
      </trkpt>
      <trkpt lat="47.9617" lon="7.03888">
        <ele>1218.83</ele>
        <time>2020-12-13T10:54:53.000Z</time>
      </trkpt>
      <trkpt lat="47.9616" lon="7.03888">
        <ele>1218.24</ele>
        <time>2020-12-13T10:55:03.000Z</time>
      </trkpt>
      <trkpt lat="47.96151" lon="7.03889">
        <ele>1217.57</ele>
        <time>2020-12-13T10:55:13.000Z</time>
      </trkpt>
      <trkpt lat="47.96142" lon="7.0389">
        <ele>1216.76</ele>
        <time>2020-12-13T10:55:24.000Z</time>
      </trkpt>
      <trkpt lat="47.96133" lon="7.03892">
        <ele>1216.02</ele>
        <time>2020-12-13T10:55:34.000Z</time>
      </trkpt>
      <trkpt lat="47.96124" lon="7.03892">
        <ele>1216.42</ele>
        <time>2020-12-13T10:55:48.000Z</time>
      </trkpt>
      <trkpt lat="47.96115" lon="7.03895">
        <ele>1216.23</ele>
        <time>2020-12-13T10:55:59.000Z</time>
      </trkpt>
      <trkpt lat="47.96105" lon="7.03896">
        <ele>1217.37</ele>
        <time>2020-12-13T10:56:12.000Z</time>
      </trkpt>
      <trkpt lat="47.96095" lon="7.03895">
        <ele>1218.13</ele>
        <time>2020-12-13T10:56:23.000Z</time>
      </trkpt>
      <trkpt lat="47.96086" lon="7.03898">
        <ele>1217.98</ele>
        <time>2020-12-13T10:56:33.000Z</time>
      </trkpt>
      <trkpt lat="47.96077" lon="7.03899">
        <ele>1216.26</ele>
        <time>2020-12-13T10:56:47.000Z</time>
      </trkpt>
      <trkpt lat="47.96067" lon="7.03899">
        <ele>1215.93</ele>
        <time>2020-12-13T10:56:59.000Z</time>
      </trkpt>
      <trkpt lat="47.96057" lon="7.03901">
        <ele>1216.13</ele>
        <time>2020-12-13T10:57:10.000Z</time>
      </trkpt>
      <trkpt lat="47.96048" lon="7.03904">
        <ele>1215.83</ele>
        <time>2020-12-13T10:57:21.000Z</time>
      </trkpt>
      <trkpt lat="47.96039" lon="7.03908">
        <ele>1215.03</ele>
        <time>2020-12-13T10:57:30.000Z</time>
      </trkpt>
      <trkpt lat="47.96029" lon="7.0391">
        <ele>1215.03</ele>
        <time>2020-12-13T10:57:41.000Z</time>
      </trkpt>
      <trkpt lat="47.9602" lon="7.03911">
        <ele>1216.67</ele>
        <time>2020-12-13T10:57:55.000Z</time>
      </trkpt>
      <trkpt lat="47.96011" lon="7.03915">
        <ele>1217.6</ele>
        <time>2020-12-13T10:58:07.000Z</time>
      </trkpt>
      <trkpt lat="47.96003" lon="7.03919">
        <ele>1217.8</ele>
        <time>2020-12-13T10:58:19.000Z</time>
      </trkpt>
      <trkpt lat="47.95995" lon="7.03927">
        <ele>1218.61</ele>
        <time>2020-12-13T10:58:34.000Z</time>
      </trkpt>
      <trkpt lat="47.95986" lon="7.03931">
        <ele>1219.2</ele>
        <time>2020-12-13T10:58:49.000Z</time>
      </trkpt>
      <trkpt lat="47.95978" lon="7.03939">
        <ele>1220.87</ele>
        <time>2020-12-13T10:59:04.000Z</time>
      </trkpt>
      <trkpt lat="47.95969" lon="7.03942">
        <ele>1223.47</ele>
        <time>2020-12-13T10:59:20.000Z</time>
      </trkpt>
      <trkpt lat="47.95961" lon="7.03948">
        <ele>1225.99</ele>
        <time>2020-12-13T10:59:38.000Z</time>
      </trkpt>
      <trkpt lat="47.95952" lon="7.03951">
        <ele>1229.66</ele>
        <time>2020-12-13T10:59:53.000Z</time>
      </trkpt>
      <trkpt lat="47.95942" lon="7.03956">
        <ele>1232.51</ele>
        <time>2020-12-13T11:00:11.000Z</time>
      </trkpt>
      <trkpt lat="47.95929" lon="7.03959">
        <ele>1234.23</ele>
        <time>2020-12-13T11:00:30.000Z</time>
      </trkpt>
      <trkpt lat="47.95925" lon="7.03942">
        <ele>1233.79</ele>
        <time>2020-12-13T11:00:35.000Z</time>
      </trkpt>
      <trkpt lat="47.95934" lon="7.03953">
        <ele>1233.63</ele>
        <time>2020-12-13T11:00:40.000Z</time>
      </trkpt>
      <trkpt lat="47.95941" lon="7.03964">
        <ele>1234.49</ele>
        <time>2020-12-13T11:00:57.000Z</time>
      </trkpt>
      <trkpt lat="47.95935" lon="7.03975">
        <ele>1235.72</ele>
        <time>2020-12-13T11:01:32.000Z</time>
      </trkpt>
      <trkpt lat="47.9594" lon="7.03965">
        <ele>1235.73</ele>
        <time>2020-12-13T11:01:37.000Z</time>
      </trkpt>
      <trkpt lat="47.95923" lon="7.03967">
        <ele>1237.86</ele>
        <time>2020-12-13T11:02:58.000Z</time>
      </trkpt>
      <trkpt lat="47.95913" lon="7.03965">
        <ele>1238.68</ele>
        <time>2020-12-13T11:06:20.000Z</time>
      </trkpt>
      <trkpt lat="47.95903" lon="7.03968">
        <ele>1238.08</ele>
        <time>2020-12-13T11:06:55.000Z</time>
      </trkpt>
      <trkpt lat="47.95893" lon="7.03969">
        <ele>1237.31</ele>
        <time>2020-12-13T11:07:15.000Z</time>
      </trkpt>
      <trkpt lat="47.95881" lon="7.03972">
        <ele>1236.43</ele>
        <time>2020-12-13T11:07:27.000Z</time>
      </trkpt>
      <trkpt lat="47.95869" lon="7.03974">
        <ele>1234.88</ele>
        <time>2020-12-13T11:07:50.000Z</time>
      </trkpt>
      <trkpt lat="47.9586" lon="7.03973">
        <ele>1232.7</ele>
        <time>2020-12-13T11:08:28.000Z</time>
      </trkpt>
      <trkpt lat="47.9585" lon="7.03974">
        <ele>1231.05</ele>
        <time>2020-12-13T11:08:51.000Z</time>
      </trkpt>
      <trkpt lat="47.95837" lon="7.03974">
        <ele>1229.58</ele>
        <time>2020-12-13T11:09:09.000Z</time>
      </trkpt>
      <trkpt lat="47.95825" lon="7.03973">
        <ele>1227.8</ele>
        <time>2020-12-13T11:09:28.000Z</time>
      </trkpt>
      <trkpt lat="47.95813" lon="7.03973">
        <ele>1225.28</ele>
        <time>2020-12-13T11:09:48.000Z</time>
      </trkpt>
      <trkpt lat="47.95802" lon="7.0397">
        <ele>1222.98</ele>
        <time>2020-12-13T11:09:58.000Z</time>
      </trkpt>
      <trkpt lat="47.95787" lon="7.03967">
        <ele>1221.23</ele>
        <time>2020-12-13T11:10:07.000Z</time>
      </trkpt>
      <trkpt lat="47.95774" lon="7.03968">
        <ele>1220.08</ele>
        <time>2020-12-13T11:10:15.000Z</time>
      </trkpt>
      <trkpt lat="47.95761" lon="7.03964">
        <ele>1219</ele>
        <time>2020-12-13T11:10:24.000Z</time>
      </trkpt>
      <trkpt lat="47.95748" lon="7.03964">
        <ele>1218.48</ele>
        <time>2020-12-13T11:10:33.000Z</time>
      </trkpt>
      <trkpt lat="47.95732" lon="7.03963">
        <ele>1218.53</ele>
        <time>2020-12-13T11:10:41.000Z</time>
      </trkpt>
      <trkpt lat="47.95718" lon="7.0394">
        <ele>1220.66</ele>
        <time>2020-12-13T11:10:46.000Z</time>
      </trkpt>
      <trkpt lat="47.95707" lon="7.03952">
        <ele>1225.05</ele>
        <time>2020-12-13T11:10:54.000Z</time>
      </trkpt>
      <trkpt lat="47.95688" lon="7.03974">
        <ele>1231.43</ele>
        <time>2020-12-13T11:10:59.000Z</time>
      </trkpt>
      <trkpt lat="47.95673" lon="7.03961">
        <ele>1252.43</ele>
        <time>2020-12-13T11:11:28.000Z</time>
      </trkpt>
      <trkpt lat="47.95662" lon="7.03959">
        <ele>1255.98</ele>
        <time>2020-12-13T11:11:46.000Z</time>
      </trkpt>
      <trkpt lat="47.95652" lon="7.03953">
        <ele>1256.93</ele>
        <time>2020-12-13T11:12:01.000Z</time>
      </trkpt>
      <trkpt lat="47.95639" lon="7.03951">
        <ele>1258.58</ele>
        <time>2020-12-13T11:12:27.000Z</time>
      </trkpt>
      <trkpt lat="47.9563" lon="7.03949">
        <ele>1260.19</ele>
        <time>2020-12-13T11:12:51.000Z</time>
      </trkpt>
      <trkpt lat="47.95614" lon="7.03946">
        <ele>1263.8</ele>
        <time>2020-12-13T11:13:22.000Z</time>
      </trkpt>
      <trkpt lat="47.95625" lon="7.03945">
        <ele>1263.9</ele>
        <time>2020-12-13T11:13:41.000Z</time>
      </trkpt>
      <trkpt lat="47.95611" lon="7.03944">
        <ele>1267.28</ele>
        <time>2020-12-13T11:15:29.000Z</time>
      </trkpt>
      <trkpt lat="47.95603" lon="7.03937">
        <ele>1266.39</ele>
        <time>2020-12-13T11:15:55.000Z</time>
      </trkpt>
      <trkpt lat="47.95594" lon="7.03931">
        <ele>1264.86</ele>
        <time>2020-12-13T11:16:05.000Z</time>
      </trkpt>
      <trkpt lat="47.95587" lon="7.03923">
        <ele>1264.3</ele>
        <time>2020-12-13T11:16:16.000Z</time>
      </trkpt>
      <trkpt lat="47.95577" lon="7.03916">
        <ele>1262.63</ele>
        <time>2020-12-13T11:16:27.000Z</time>
      </trkpt>
      <trkpt lat="47.95569" lon="7.03909">
        <ele>1260.09</ele>
        <time>2020-12-13T11:16:38.000Z</time>
      </trkpt>
      <trkpt lat="47.95561" lon="7.039">
        <ele>1259.88</ele>
        <time>2020-12-13T11:16:50.000Z</time>
      </trkpt>
      <trkpt lat="47.95553" lon="7.03893">
        <ele>1259.76</ele>
        <time>2020-12-13T11:17:01.000Z</time>
      </trkpt>
      <trkpt lat="47.95545" lon="7.03874">
        <ele>1257.33</ele>
        <time>2020-12-13T11:17:58.000Z</time>
      </trkpt>
      <trkpt lat="47.95535" lon="7.03856">
        <ele>1255.38</ele>
        <time>2020-12-13T11:18:16.000Z</time>
      </trkpt>
      <trkpt lat="47.95528" lon="7.03846">
        <ele>1254.34</ele>
        <time>2020-12-13T11:18:27.000Z</time>
      </trkpt>
      <trkpt lat="47.9552" lon="7.03837">
        <ele>1253.47</ele>
        <time>2020-12-13T11:18:37.000Z</time>
      </trkpt>
      <trkpt lat="47.95513" lon="7.03828">
        <ele>1252.09</ele>
        <time>2020-12-13T11:18:47.000Z</time>
      </trkpt>
      <trkpt lat="47.95499" lon="7.03813">
        <ele>1249.53</ele>
        <time>2020-12-13T11:19:06.000Z</time>
      </trkpt>
      <trkpt lat="47.95491" lon="7.03806">
        <ele>1246.8</ele>
        <time>2020-12-13T11:19:26.000Z</time>
      </trkpt>
      <trkpt lat="47.95482" lon="7.03799">
        <ele>1243.96</ele>
        <time>2020-12-13T11:20:16.000Z</time>
      </trkpt>
      <trkpt lat="47.95475" lon="7.03791">
        <ele>1244.81</ele>
        <time>2020-12-13T11:20:29.000Z</time>
      </trkpt>
      <trkpt lat="47.95466" lon="7.03785">
        <ele>1243.39</ele>
        <time>2020-12-13T11:20:42.000Z</time>
      </trkpt>
      <trkpt lat="47.95457" lon="7.03777">
        <ele>1245.5</ele>
        <time>2020-12-13T11:33:01.000Z</time>
      </trkpt>
      <trkpt lat="47.95446" lon="7.03765">
        <ele>1245.78</ele>
        <time>2020-12-13T11:33:19.000Z</time>
      </trkpt>
      <trkpt lat="47.95431" lon="7.03749">
        <ele>1243.8</ele>
        <time>2020-12-13T11:33:40.000Z</time>
      </trkpt>
      <trkpt lat="47.95421" lon="7.03738">
        <ele>1241.9</ele>
        <time>2020-12-13T11:33:52.000Z</time>
      </trkpt>
      <trkpt lat="47.95413" lon="7.0373">
        <ele>1239.86</ele>
        <time>2020-12-13T11:33:57.000Z</time>
      </trkpt>
      <trkpt lat="47.95406" lon="7.03721">
        <ele>1237.03</ele>
        <time>2020-12-13T11:34:04.000Z</time>
      </trkpt>
      <trkpt lat="47.954" lon="7.03706">
        <ele>1234.53</ele>
        <time>2020-12-13T11:34:37.000Z</time>
      </trkpt>
      <trkpt lat="47.95392" lon="7.03691">
        <ele>1232.33</ele>
        <time>2020-12-13T11:34:57.000Z</time>
      </trkpt>
      <trkpt lat="47.95385" lon="7.03676">
        <ele>1230.48</ele>
        <time>2020-12-13T11:35:12.000Z</time>
      </trkpt>
      <trkpt lat="47.95379" lon="7.03663">
        <ele>1229.3</ele>
        <time>2020-12-13T11:35:22.000Z</time>
      </trkpt>
      <trkpt lat="47.95374" lon="7.0365">
        <ele>1227.43</ele>
        <time>2020-12-13T11:35:30.000Z</time>
      </trkpt>
      <trkpt lat="47.95369" lon="7.03636">
        <ele>1225.12</ele>
        <time>2020-12-13T11:35:39.000Z</time>
      </trkpt>
      <trkpt lat="47.95359" lon="7.03615">
        <ele>1221.85</ele>
        <time>2020-12-13T11:36:06.000Z</time>
      </trkpt>
      <trkpt lat="47.95353" lon="7.03594">
        <ele>1220.18</ele>
        <time>2020-12-13T11:36:25.000Z</time>
      </trkpt>
      <trkpt lat="47.95349" lon="7.03581">
        <ele>1219.75</ele>
        <time>2020-12-13T11:36:40.000Z</time>
      </trkpt>
      <trkpt lat="47.95341" lon="7.03568">
        <ele>1219.58</ele>
        <time>2020-12-13T11:36:53.000Z</time>
      </trkpt>
      <trkpt lat="47.95333" lon="7.0356">
        <ele>1219.17</ele>
        <time>2020-12-13T11:37:01.000Z</time>
      </trkpt>
      <trkpt lat="47.95325" lon="7.03551">
        <ele>1218.66</ele>
        <time>2020-12-13T11:37:09.000Z</time>
      </trkpt>
      <trkpt lat="47.95314" lon="7.03539">
        <ele>1216.8</ele>
        <time>2020-12-13T11:37:48.000Z</time>
      </trkpt>
      <trkpt lat="47.95299" lon="7.03523">
        <ele>1211.68</ele>
        <time>2020-12-13T11:40:08.000Z</time>
      </trkpt>
      <trkpt lat="47.9529" lon="7.03515">
        <ele>1209.53</ele>
        <time>2020-12-13T11:40:26.000Z</time>
      </trkpt>
      <trkpt lat="47.9528" lon="7.03504">
        <ele>1209.35</ele>
        <time>2020-12-13T11:40:38.000Z</time>
      </trkpt>
      <trkpt lat="47.9527" lon="7.03491">
        <ele>1209.43</ele>
        <time>2020-12-13T11:40:47.000Z</time>
      </trkpt>
      <trkpt lat="47.95261" lon="7.03477">
        <ele>1209.68</ele>
        <time>2020-12-13T11:41:00.000Z</time>
      </trkpt>
      <trkpt lat="47.95251" lon="7.03465">
        <ele>1209.9</ele>
        <time>2020-12-13T11:41:11.000Z</time>
      </trkpt>
      <trkpt lat="47.9524" lon="7.03452">
        <ele>1210.1</ele>
        <time>2020-12-13T11:41:22.000Z</time>
      </trkpt>
      <trkpt lat="47.9523" lon="7.03439">
        <ele>1210.23</ele>
        <time>2020-12-13T11:41:35.000Z</time>
      </trkpt>
      <trkpt lat="47.95222" lon="7.03426">
        <ele>1209.98</ele>
        <time>2020-12-13T11:41:48.000Z</time>
      </trkpt>
      <trkpt lat="47.95214" lon="7.03412">
        <ele>1209.63</ele>
        <time>2020-12-13T11:42:03.000Z</time>
      </trkpt>
      <trkpt lat="47.95205" lon="7.03399">
        <ele>1209.28</ele>
        <time>2020-12-13T11:42:17.000Z</time>
      </trkpt>
      <trkpt lat="47.95198" lon="7.03386">
        <ele>1209.23</ele>
        <time>2020-12-13T11:42:31.000Z</time>
      </trkpt>
      <trkpt lat="47.95193" lon="7.03369">
        <ele>1208.9</ele>
        <time>2020-12-13T11:42:45.000Z</time>
      </trkpt>
      <trkpt lat="47.95194" lon="7.03352">
        <ele>1208.2</ele>
        <time>2020-12-13T11:43:03.000Z</time>
      </trkpt>
      <trkpt lat="47.9519" lon="7.03338">
        <ele>1205.4</ele>
        <time>2020-12-13T11:44:04.000Z</time>
      </trkpt>
      <trkpt lat="47.95197" lon="7.03348">
        <ele>1203.43</ele>
        <time>2020-12-13T11:44:44.000Z</time>
      </trkpt>
      <trkpt lat="47.95206" lon="7.03357">
        <ele>1202.88</ele>
        <time>2020-12-13T11:45:17.000Z</time>
      </trkpt>
      <trkpt lat="47.95215" lon="7.03365">
        <ele>1200.55</ele>
        <time>2020-12-13T11:45:55.000Z</time>
      </trkpt>
      <trkpt lat="47.95225" lon="7.03372">
        <ele>1197.93</ele>
        <time>2020-12-13T11:46:09.000Z</time>
      </trkpt>
      <trkpt lat="47.95241" lon="7.03378">
        <ele>1194.23</ele>
        <time>2020-12-13T11:46:29.000Z</time>
      </trkpt>
      <trkpt lat="47.95253" lon="7.03379">
        <ele>1191.48</ele>
        <time>2020-12-13T11:46:44.000Z</time>
      </trkpt>
      <trkpt lat="47.95263" lon="7.03375">
        <ele>1187.65</ele>
        <time>2020-12-13T11:47:03.000Z</time>
      </trkpt>
      <trkpt lat="47.95275" lon="7.0337">
        <ele>1184.8</ele>
        <time>2020-12-13T11:47:16.000Z</time>
      </trkpt>
      <trkpt lat="47.95287" lon="7.03368">
        <ele>1182.25</ele>
        <time>2020-12-13T11:47:31.000Z</time>
      </trkpt>
      <trkpt lat="47.95301" lon="7.03366">
        <ele>1181.55</ele>
        <time>2020-12-13T11:47:46.000Z</time>
      </trkpt>
      <trkpt lat="47.95314" lon="7.03359">
        <ele>1180.3</ele>
        <time>2020-12-13T11:48:02.000Z</time>
      </trkpt>
      <trkpt lat="47.95325" lon="7.03354">
        <ele>1178.83</ele>
        <time>2020-12-13T11:48:17.000Z</time>
      </trkpt>
      <trkpt lat="47.95336" lon="7.03351">
        <ele>1177.25</ele>
        <time>2020-12-13T11:48:30.000Z</time>
      </trkpt>
      <trkpt lat="47.95347" lon="7.03346">
        <ele>1175.35</ele>
        <time>2020-12-13T11:48:52.000Z</time>
      </trkpt>
      <trkpt lat="47.95358" lon="7.03342">
        <ele>1172.23</ele>
        <time>2020-12-13T11:49:18.000Z</time>
      </trkpt>
      <trkpt lat="47.95369" lon="7.03345">
        <ele>1168.38</ele>
        <time>2020-12-13T11:49:43.000Z</time>
      </trkpt>
      <trkpt lat="47.9538" lon="7.0334">
        <ele>1165.58</ele>
        <time>2020-12-13T11:49:58.000Z</time>
      </trkpt>
      <trkpt lat="47.95391" lon="7.03331">
        <ele>1163.45</ele>
        <time>2020-12-13T11:50:13.000Z</time>
      </trkpt>
      <trkpt lat="47.95404" lon="7.03327">
        <ele>1162.25</ele>
        <time>2020-12-13T11:50:25.000Z</time>
      </trkpt>
      <trkpt lat="47.95417" lon="7.03326">
        <ele>1161.05</ele>
        <time>2020-12-13T11:50:39.000Z</time>
      </trkpt>
      <trkpt lat="47.95428" lon="7.03325">
        <ele>1160.28</ele>
        <time>2020-12-13T11:51:00.000Z</time>
      </trkpt>
      <trkpt lat="47.95437" lon="7.03325">
        <ele>1159.25</ele>
        <time>2020-12-13T11:51:09.000Z</time>
      </trkpt>
      <trkpt lat="47.95447" lon="7.03321">
        <ele>1158.9</ele>
        <time>2020-12-13T11:51:20.000Z</time>
      </trkpt>
      <trkpt lat="47.9546" lon="7.03322">
        <ele>1158.8</ele>
        <time>2020-12-13T11:51:30.000Z</time>
      </trkpt>
      <trkpt lat="47.95476" lon="7.03322">
        <ele>1160.28</ele>
        <time>2020-12-13T11:51:50.000Z</time>
      </trkpt>
      <trkpt lat="47.95486" lon="7.03325">
        <ele>1160.35</ele>
        <time>2020-12-13T11:52:24.000Z</time>
      </trkpt>
      <trkpt lat="47.95494" lon="7.03333">
        <ele>1160.58</ele>
        <time>2020-12-13T11:53:04.000Z</time>
      </trkpt>
      <trkpt lat="47.95504" lon="7.03335">
        <ele>1161.4</ele>
        <time>2020-12-13T11:53:19.000Z</time>
      </trkpt>
      <trkpt lat="47.95516" lon="7.0334">
        <ele>1163.3</ele>
        <time>2020-12-13T11:53:35.000Z</time>
      </trkpt>
      <trkpt lat="47.95528" lon="7.03347">
        <ele>1163.88</ele>
        <time>2020-12-13T11:53:46.000Z</time>
      </trkpt>
      <trkpt lat="47.95536" lon="7.03353">
        <ele>1164.59</ele>
        <time>2020-12-13T11:53:53.000Z</time>
      </trkpt>
      <trkpt lat="47.95544" lon="7.03358">
        <ele>1165.38</ele>
        <time>2020-12-13T11:54:02.000Z</time>
      </trkpt>
      <trkpt lat="47.95557" lon="7.03366">
        <ele>1167.88</ele>
        <time>2020-12-13T11:54:13.000Z</time>
      </trkpt>
      <trkpt lat="47.95568" lon="7.03377">
        <ele>1170.43</ele>
        <time>2020-12-13T11:54:25.000Z</time>
      </trkpt>
      <trkpt lat="47.95578" lon="7.0339">
        <ele>1172.58</ele>
        <time>2020-12-13T11:54:35.000Z</time>
      </trkpt>
      <trkpt lat="47.9559" lon="7.03401">
        <ele>1173.8</ele>
        <time>2020-12-13T11:54:48.000Z</time>
      </trkpt>
      <trkpt lat="47.956" lon="7.03414">
        <ele>1172.73</ele>
        <time>2020-12-13T11:55:01.000Z</time>
      </trkpt>
      <trkpt lat="47.95609" lon="7.03427">
        <ele>1171.15</ele>
        <time>2020-12-13T11:55:15.000Z</time>
      </trkpt>
      <trkpt lat="47.95615" lon="7.03445">
        <ele>1169.18</ele>
        <time>2020-12-13T11:55:30.000Z</time>
      </trkpt>
      <trkpt lat="47.95622" lon="7.03459">
        <ele>1167.1</ele>
        <time>2020-12-13T11:55:43.000Z</time>
      </trkpt>
      <trkpt lat="47.95631" lon="7.03472">
        <ele>1164.88</ele>
        <time>2020-12-13T11:55:57.000Z</time>
      </trkpt>
      <trkpt lat="47.95635" lon="7.03489">
        <ele>1163.2</ele>
        <time>2020-12-13T11:56:11.000Z</time>
      </trkpt>
      <trkpt lat="47.9564" lon="7.03504">
        <ele>1160.6</ele>
        <time>2020-12-13T11:56:25.000Z</time>
      </trkpt>
      <trkpt lat="47.95647" lon="7.03517">
        <ele>1157.65</ele>
        <time>2020-12-13T11:56:39.000Z</time>
      </trkpt>
      <trkpt lat="47.95652" lon="7.03534">
        <ele>1154.6</ele>
        <time>2020-12-13T11:56:53.000Z</time>
      </trkpt>
      <trkpt lat="47.95661" lon="7.03548">
        <ele>1154.3</ele>
        <time>2020-12-13T11:57:06.000Z</time>
      </trkpt>
      <trkpt lat="47.9567" lon="7.03558">
        <ele>1153.6</ele>
        <time>2020-12-13T11:57:18.000Z</time>
      </trkpt>
      <trkpt lat="47.9568" lon="7.03571">
        <ele>1151.75</ele>
        <time>2020-12-13T11:57:31.000Z</time>
      </trkpt>
      <trkpt lat="47.95691" lon="7.03581">
        <ele>1150.28</ele>
        <time>2020-12-13T11:57:42.000Z</time>
      </trkpt>
      <trkpt lat="47.95698" lon="7.03593">
        <ele>1145.18</ele>
        <time>2020-12-13T11:58:06.000Z</time>
      </trkpt>
      <trkpt lat="47.95705" lon="7.03608">
        <ele>1140.63</ele>
        <time>2020-12-13T11:58:22.000Z</time>
      </trkpt>
      <trkpt lat="47.95714" lon="7.0362">
        <ele>1139.4</ele>
        <time>2020-12-13T11:58:39.000Z</time>
      </trkpt>
      <trkpt lat="47.95723" lon="7.03633">
        <ele>1136.85</ele>
        <time>2020-12-13T11:58:52.000Z</time>
      </trkpt>
      <trkpt lat="47.95733" lon="7.03641">
        <ele>1134.7</ele>
        <time>2020-12-13T11:59:07.000Z</time>
      </trkpt>
      <trkpt lat="47.95739" lon="7.03651">
        <ele>1133.04</ele>
        <time>2020-12-13T12:00:42.000Z</time>
      </trkpt>
      <trkpt lat="47.95747" lon="7.03658">
        <ele>1132.05</ele>
        <time>2020-12-13T12:01:46.000Z</time>
      </trkpt>
      <trkpt lat="47.95758" lon="7.03661">
        <ele>1129.73</ele>
        <time>2020-12-13T12:02:17.000Z</time>
      </trkpt>
      <trkpt lat="47.95768" lon="7.03666">
        <ele>1129.4</ele>
        <time>2020-12-13T12:03:11.000Z</time>
      </trkpt>
      <trkpt lat="47.95777" lon="7.03669">
        <ele>1131.2</ele>
        <time>2020-12-13T12:04:46.000Z</time>
      </trkpt>
      <trkpt lat="47.95786" lon="7.03675">
        <ele>1133.43</ele>
        <time>2020-12-13T12:05:53.000Z</time>
      </trkpt>
      <trkpt lat="47.95794" lon="7.03682">
        <ele>1134.86</ele>
        <time>2020-12-13T12:06:49.000Z</time>
      </trkpt>
      <trkpt lat="47.958" lon="7.03694">
        <ele>1133.88</ele>
        <time>2020-12-13T12:07:25.000Z</time>
      </trkpt>
      <trkpt lat="47.95809" lon="7.03702">
        <ele>1131.43</ele>
        <time>2020-12-13T12:07:51.000Z</time>
      </trkpt>
      <trkpt lat="47.95819" lon="7.03706">
        <ele>1129.21</ele>
        <time>2020-12-13T12:08:10.000Z</time>
      </trkpt>
      <trkpt lat="47.9583" lon="7.03713">
        <ele>1126.46</ele>
        <time>2020-12-13T12:08:21.000Z</time>
      </trkpt>
      <trkpt lat="47.95844" lon="7.0372">
        <ele>1123.86</ele>
        <time>2020-12-13T12:08:31.000Z</time>
      </trkpt>
      <trkpt lat="47.95858" lon="7.03726">
        <ele>1121.63</ele>
        <time>2020-12-13T12:08:42.000Z</time>
      </trkpt>
      <trkpt lat="47.95871" lon="7.03731">
        <ele>1119.78</ele>
        <time>2020-12-13T12:08:59.000Z</time>
      </trkpt>
      <trkpt lat="47.95882" lon="7.03733">
        <ele>1118.13</ele>
        <time>2020-12-13T12:09:15.000Z</time>
      </trkpt>
      <trkpt lat="47.95893" lon="7.0374">
        <ele>1116.43</ele>
        <time>2020-12-13T12:09:27.000Z</time>
      </trkpt>
      <trkpt lat="47.95905" lon="7.03745">
        <ele>1115.06</ele>
        <time>2020-12-13T12:09:39.000Z</time>
      </trkpt>
      <trkpt lat="47.95917" lon="7.03751">
        <ele>1113.71</ele>
        <time>2020-12-13T12:09:51.000Z</time>
      </trkpt>
      <trkpt lat="47.9593" lon="7.03758">
        <ele>1112.18</ele>
        <time>2020-12-13T12:10:04.000Z</time>
      </trkpt>
      <trkpt lat="47.95943" lon="7.03758">
        <ele>1111.18</ele>
        <time>2020-12-13T12:10:14.000Z</time>
      </trkpt>
      <trkpt lat="47.95952" lon="7.03756">
        <ele>1110.85</ele>
        <time>2020-12-13T12:10:20.000Z</time>
      </trkpt>
      <trkpt lat="47.95964" lon="7.03755">
        <ele>1110.91</ele>
        <time>2020-12-13T12:10:25.000Z</time>
      </trkpt>
      <trkpt lat="47.95974" lon="7.03755">
        <ele>1111.08</ele>
        <time>2020-12-13T12:10:30.000Z</time>
      </trkpt>
      <trkpt lat="47.9599" lon="7.03753">
        <ele>1112.11</ele>
        <time>2020-12-13T12:10:40.000Z</time>
      </trkpt>
      <trkpt lat="47.96005" lon="7.03754">
        <ele>1114.03</ele>
        <time>2020-12-13T12:10:58.000Z</time>
      </trkpt>
      <trkpt lat="47.96014" lon="7.03755">
        <ele>1114.49</ele>
        <time>2020-12-13T12:11:03.000Z</time>
      </trkpt>
      <trkpt lat="47.96023" lon="7.03757">
        <ele>1115.55</ele>
        <time>2020-12-13T12:11:11.000Z</time>
      </trkpt>
      <trkpt lat="47.96038" lon="7.03755">
        <ele>1115.98</ele>
        <time>2020-12-13T12:11:24.000Z</time>
      </trkpt>
      <trkpt lat="47.96051" lon="7.03752">
        <ele>1115.81</ele>
        <time>2020-12-13T12:11:39.000Z</time>
      </trkpt>
      <trkpt lat="47.96062" lon="7.03747">
        <ele>1114.43</ele>
        <time>2020-12-13T12:11:55.000Z</time>
      </trkpt>
      <trkpt lat="47.96074" lon="7.03745">
        <ele>1112.91</ele>
        <time>2020-12-13T12:12:07.000Z</time>
      </trkpt>
      <trkpt lat="47.96087" lon="7.03743">
        <ele>1112.53</ele>
        <time>2020-12-13T12:12:18.000Z</time>
      </trkpt>
      <trkpt lat="47.961" lon="7.03745">
        <ele>1112.61</ele>
        <time>2020-12-13T12:12:30.000Z</time>
      </trkpt>
      <trkpt lat="47.96113" lon="7.03743">
        <ele>1112.51</ele>
        <time>2020-12-13T12:12:40.000Z</time>
      </trkpt>
      <trkpt lat="47.96125" lon="7.03742">
        <ele>1110.93</ele>
        <time>2020-12-13T12:12:51.000Z</time>
      </trkpt>
      <trkpt lat="47.96142" lon="7.03737">
        <ele>1108.66</ele>
        <time>2020-12-13T12:13:06.000Z</time>
      </trkpt>
      <trkpt lat="47.96158" lon="7.03733">
        <ele>1107.26</ele>
        <time>2020-12-13T12:13:18.000Z</time>
      </trkpt>
      <trkpt lat="47.9617" lon="7.03733">
        <ele>1108.59</ele>
        <time>2020-12-13T12:13:23.000Z</time>
      </trkpt>
      <trkpt lat="47.96184" lon="7.03735">
        <ele>1110.21</ele>
        <time>2020-12-13T12:13:33.000Z</time>
      </trkpt>
      <trkpt lat="47.96196" lon="7.03736">
        <ele>1111.38</ele>
        <time>2020-12-13T12:13:43.000Z</time>
      </trkpt>
      <trkpt lat="47.96209" lon="7.03737">
        <ele>1111.86</ele>
        <time>2020-12-13T12:13:55.000Z</time>
      </trkpt>
      <trkpt lat="47.96225" lon="7.03738">
        <ele>1112.58</ele>
        <time>2020-12-13T12:14:06.000Z</time>
      </trkpt>
      <trkpt lat="47.96236" lon="7.03737">
        <ele>1115.12</ele>
        <time>2020-12-13T12:14:11.000Z</time>
      </trkpt>
      <trkpt lat="47.96248" lon="7.03733">
        <ele>1116.68</ele>
        <time>2020-12-13T12:14:21.000Z</time>
      </trkpt>
      <trkpt lat="47.96261" lon="7.03732">
        <ele>1122.91</ele>
        <time>2020-12-13T12:14:32.000Z</time>
      </trkpt>
      <trkpt lat="47.96268" lon="7.03724">
        <ele>1129.47</ele>
        <time>2020-12-13T12:14:38.000Z</time>
      </trkpt>
      <trkpt lat="47.96277" lon="7.03716">
        <ele>1134.86</ele>
        <time>2020-12-13T12:14:43.000Z</time>
      </trkpt>
      <trkpt lat="47.96285" lon="7.03708">
        <ele>1140.17</ele>
        <time>2020-12-13T12:14:48.000Z</time>
      </trkpt>
      <trkpt lat="47.96292" lon="7.03699">
        <ele>1144.68</ele>
        <time>2020-12-13T12:14:53.000Z</time>
      </trkpt>
      <trkpt lat="47.963" lon="7.03692">
        <ele>1149.57</ele>
        <time>2020-12-13T12:14:58.000Z</time>
      </trkpt>
      <trkpt lat="47.96313" lon="7.03685">
        <ele>1160.06</ele>
        <time>2020-12-13T12:15:03.000Z</time>
      </trkpt>
      <trkpt lat="47.96321" lon="7.03676">
        <ele>1166.42</ele>
        <time>2020-12-13T12:15:08.000Z</time>
      </trkpt>
      <trkpt lat="47.96328" lon="7.03664">
        <ele>1170.54</ele>
        <time>2020-12-13T12:15:15.000Z</time>
      </trkpt>
      <trkpt lat="47.96334" lon="7.03653">
        <ele>1174.08</ele>
        <time>2020-12-13T12:15:21.000Z</time>
      </trkpt>
      <trkpt lat="47.9634" lon="7.03642">
        <ele>1177.09</ele>
        <time>2020-12-13T12:15:28.000Z</time>
      </trkpt>
      <trkpt lat="47.96343" lon="7.03629">
        <ele>1179.34</ele>
        <time>2020-12-13T12:15:37.000Z</time>
      </trkpt>
      <trkpt lat="47.96349" lon="7.03617">
        <ele>1180.53</ele>
        <time>2020-12-13T12:15:44.000Z</time>
      </trkpt>
      <trkpt lat="47.96354" lon="7.03605">
        <ele>1179.93</ele>
        <time>2020-12-13T12:15:52.000Z</time>
      </trkpt>
      <trkpt lat="47.9636" lon="7.03595">
        <ele>1179.3</ele>
        <time>2020-12-13T12:15:59.000Z</time>
      </trkpt>
      <trkpt lat="47.96368" lon="7.03583">
        <ele>1178.14</ele>
        <time>2020-12-13T12:16:08.000Z</time>
      </trkpt>
      <trkpt lat="47.96375" lon="7.03574">
        <ele>1176.86</ele>
        <time>2020-12-13T12:16:16.000Z</time>
      </trkpt>
      <trkpt lat="47.96383" lon="7.03565">
        <ele>1175.18</ele>
        <time>2020-12-13T12:16:24.000Z</time>
      </trkpt>
      <trkpt lat="47.96389" lon="7.03555">
        <ele>1174.01</ele>
        <time>2020-12-13T12:16:31.000Z</time>
      </trkpt>
      <trkpt lat="47.96398" lon="7.03545">
        <ele>1171.46</ele>
        <time>2020-12-13T12:16:41.000Z</time>
      </trkpt>
      <trkpt lat="47.96404" lon="7.03535">
        <ele>1168.83</ele>
        <time>2020-12-13T12:16:49.000Z</time>
      </trkpt>
      <trkpt lat="47.96411" lon="7.03525">
        <ele>1167.33</ele>
        <time>2020-12-13T12:16:56.000Z</time>
      </trkpt>
      <trkpt lat="47.96418" lon="7.03515">
        <ele>1166.25</ele>
        <time>2020-12-13T12:17:04.000Z</time>
      </trkpt>
      <trkpt lat="47.96426" lon="7.03507">
        <ele>1165.02</ele>
        <time>2020-12-13T12:17:12.000Z</time>
      </trkpt>
      <trkpt lat="47.96434" lon="7.03513">
        <ele>1165.08</ele>
        <time>2020-12-13T12:17:44.000Z</time>
      </trkpt>
      <trkpt lat="47.96442" lon="7.03524">
        <ele>1166.46</ele>
        <time>2020-12-13T12:18:02.000Z</time>
      </trkpt>
      <trkpt lat="47.9645" lon="7.03537">
        <ele>1166.56</ele>
        <time>2020-12-13T12:18:24.000Z</time>
      </trkpt>
      <trkpt lat="47.96459" lon="7.03543">
        <ele>1166.71</ele>
        <time>2020-12-13T12:18:46.000Z</time>
      </trkpt>
      <trkpt lat="47.9647" lon="7.0355">
        <ele>1166.71</ele>
        <time>2020-12-13T12:19:04.000Z</time>
      </trkpt>
      <trkpt lat="47.96478" lon="7.03561">
        <ele>1167.18</ele>
        <time>2020-12-13T12:19:25.000Z</time>
      </trkpt>
      <trkpt lat="47.96487" lon="7.0357">
        <ele>1168.63</ele>
        <time>2020-12-13T12:19:43.000Z</time>
      </trkpt>
      <trkpt lat="47.96491" lon="7.03583">
        <ele>1170.28</ele>
        <time>2020-12-13T12:20:03.000Z</time>
      </trkpt>
      <trkpt lat="47.96501" lon="7.03592">
        <ele>1172.73</ele>
        <time>2020-12-13T12:20:19.000Z</time>
      </trkpt>
      <trkpt lat="47.96511" lon="7.03601">
        <ele>1175.73</ele>
        <time>2020-12-13T12:20:35.000Z</time>
      </trkpt>
      <trkpt lat="47.9652" lon="7.03603">
        <ele>1189.61</ele>
        <time>2020-12-13T12:42:28.000Z</time>
      </trkpt>
      <trkpt lat="47.96529" lon="7.03606">
        <ele>1196.56</ele>
        <time>2020-12-13T12:58:59.000Z</time>
      </trkpt>
      <trkpt lat="47.96535" lon="7.03618">
        <ele>1186.66</ele>
        <time>2020-12-13T13:00:02.000Z</time>
      </trkpt>
      <trkpt lat="47.96544" lon="7.03622">
        <ele>1185.98</ele>
        <time>2020-12-13T13:00:10.000Z</time>
      </trkpt>
      <trkpt lat="47.96552" lon="7.03628">
        <ele>1185.2</ele>
        <time>2020-12-13T13:00:17.000Z</time>
      </trkpt>
      <trkpt lat="47.96561" lon="7.03637">
        <ele>1184.03</ele>
        <time>2020-12-13T13:00:25.000Z</time>
      </trkpt>
      <trkpt lat="47.96568" lon="7.03646">
        <ele>1181.71</ele>
        <time>2020-12-13T13:00:33.000Z</time>
      </trkpt>
      <trkpt lat="47.96572" lon="7.03658">
        <ele>1181.16</ele>
        <time>2020-12-13T13:00:40.000Z</time>
      </trkpt>
      <trkpt lat="47.96578" lon="7.03669">
        <ele>1179.79</ele>
        <time>2020-12-13T13:00:49.000Z</time>
      </trkpt>
      <trkpt lat="47.96583" lon="7.03683">
        <ele>1179.11</ele>
        <time>2020-12-13T13:00:59.000Z</time>
      </trkpt>
      <trkpt lat="47.96588" lon="7.03696">
        <ele>1177.74</ele>
        <time>2020-12-13T13:01:07.000Z</time>
      </trkpt>
      <trkpt lat="47.96592" lon="7.03709">
        <ele>1176.56</ele>
        <time>2020-12-13T13:01:16.000Z</time>
      </trkpt>
      <trkpt lat="47.96597" lon="7.03723">
        <ele>1175.84</ele>
        <time>2020-12-13T13:01:24.000Z</time>
      </trkpt>
      <trkpt lat="47.96601" lon="7.03737">
        <ele>1174.86</ele>
        <time>2020-12-13T13:01:32.000Z</time>
      </trkpt>
      <trkpt lat="47.9661" lon="7.03756">
        <ele>1174.41</ele>
        <time>2020-12-13T13:01:51.000Z</time>
      </trkpt>
      <trkpt lat="47.96615" lon="7.03771">
        <ele>1173.53</ele>
        <time>2020-12-13T13:02:08.000Z</time>
      </trkpt>
      <trkpt lat="47.96621" lon="7.03782">
        <ele>1173.61</ele>
        <time>2020-12-13T13:03:57.000Z</time>
      </trkpt>
      <trkpt lat="47.96624" lon="7.03797">
        <ele>1173.11</ele>
        <time>2020-12-13T13:05:25.000Z</time>
      </trkpt>
      <trkpt lat="47.96629" lon="7.03811">
        <ele>1170.76</ele>
        <time>2020-12-13T13:05:55.000Z</time>
      </trkpt>
      <trkpt lat="47.96632" lon="7.03826">
        <ele>1168.01</ele>
        <time>2020-12-13T13:06:14.000Z</time>
      </trkpt>
      <trkpt lat="47.96638" lon="7.03841">
        <ele>1165.98</ele>
        <time>2020-12-13T13:06:32.000Z</time>
      </trkpt>
      <trkpt lat="47.96643" lon="7.03857">
        <ele>1164.46</ele>
        <time>2020-12-13T13:06:46.000Z</time>
      </trkpt>
      <trkpt lat="47.96651" lon="7.03871">
        <ele>1162.68</ele>
        <time>2020-12-13T13:06:58.000Z</time>
      </trkpt>
      <trkpt lat="47.96658" lon="7.03887">
        <ele>1160.71</ele>
        <time>2020-12-13T13:07:09.000Z</time>
      </trkpt>
      <trkpt lat="47.96663" lon="7.03906">
        <ele>1158.66</ele>
        <time>2020-12-13T13:07:19.000Z</time>
      </trkpt>
      <trkpt lat="47.96668" lon="7.03925">
        <ele>1156.33</ele>
        <time>2020-12-13T13:07:29.000Z</time>
      </trkpt>
      <trkpt lat="47.96669" lon="7.0394">
        <ele>1155.14</ele>
        <time>2020-12-13T13:07:34.000Z</time>
      </trkpt>
      <trkpt lat="47.96672" lon="7.03956">
        <ele>1153.77</ele>
        <time>2020-12-13T13:07:39.000Z</time>
      </trkpt>
      <trkpt lat="47.96675" lon="7.03975">
        <ele>1151.58</ele>
        <time>2020-12-13T13:07:50.000Z</time>
      </trkpt>
      <trkpt lat="47.96677" lon="7.03996">
        <ele>1148.91</ele>
        <time>2020-12-13T13:08:00.000Z</time>
      </trkpt>
      <trkpt lat="47.9668" lon="7.04018">
        <ele>1146.58</ele>
        <time>2020-12-13T13:08:09.000Z</time>
      </trkpt>
      <trkpt lat="47.96683" lon="7.04037">
        <ele>1144.08</ele>
        <time>2020-12-13T13:08:21.000Z</time>
      </trkpt>
      <trkpt lat="47.96686" lon="7.04059">
        <ele>1143.31</ele>
        <time>2020-12-13T13:08:30.000Z</time>
      </trkpt>
      <trkpt lat="47.96689" lon="7.04083">
        <ele>1143.58</ele>
        <time>2020-12-13T13:08:40.000Z</time>
      </trkpt>
      <trkpt lat="47.96695" lon="7.04107">
        <ele>1144.61</ele>
        <time>2020-12-13T13:08:48.000Z</time>
      </trkpt>
      <trkpt lat="47.967" lon="7.0412">
        <ele>1146.33</ele>
        <time>2020-12-13T13:08:53.000Z</time>
      </trkpt>
      <trkpt lat="47.96716" lon="7.04133">
        <ele>1146.86</ele>
        <time>2020-12-13T13:09:23.000Z</time>
      </trkpt>
      <trkpt lat="47.96726" lon="7.04141">
        <ele>1145.41</ele>
        <time>2020-12-13T13:09:34.000Z</time>
      </trkpt>
      <trkpt lat="47.96735" lon="7.04147">
        <ele>1143.8</ele>
        <time>2020-12-13T13:09:41.000Z</time>
      </trkpt>
      <trkpt lat="47.96744" lon="7.04151">
        <ele>1142.68</ele>
        <time>2020-12-13T13:09:48.000Z</time>
      </trkpt>
      <trkpt lat="47.96752" lon="7.04158">
        <ele>1140.4</ele>
        <time>2020-12-13T13:09:56.000Z</time>
      </trkpt>
      <trkpt lat="47.9676" lon="7.04164">
        <ele>1139.48</ele>
        <time>2020-12-13T13:10:04.000Z</time>
      </trkpt>
      <trkpt lat="47.96772" lon="7.04175">
        <ele>1137.96</ele>
        <time>2020-12-13T13:10:18.000Z</time>
      </trkpt>
      <trkpt lat="47.96781" lon="7.04183">
        <ele>1137.46</ele>
        <time>2020-12-13T13:10:26.000Z</time>
      </trkpt>
      <trkpt lat="47.96795" lon="7.0419">
        <ele>1136.66</ele>
        <time>2020-12-13T13:10:40.000Z</time>
      </trkpt>
      <trkpt lat="47.96812" lon="7.04199">
        <ele>1135.28</ele>
        <time>2020-12-13T13:10:57.000Z</time>
      </trkpt>
      <trkpt lat="47.96824" lon="7.04204">
        <ele>1133.96</ele>
        <time>2020-12-13T13:11:09.000Z</time>
      </trkpt>
      <trkpt lat="47.96836" lon="7.0421">
        <ele>1132.61</ele>
        <time>2020-12-13T13:11:22.000Z</time>
      </trkpt>
      <trkpt lat="47.96846" lon="7.04222">
        <ele>1131.43</ele>
        <time>2020-12-13T13:11:35.000Z</time>
      </trkpt>
      <trkpt lat="47.96856" lon="7.04233">
        <ele>1129.96</ele>
        <time>2020-12-13T13:11:47.000Z</time>
      </trkpt>
      <trkpt lat="47.96864" lon="7.04246">
        <ele>1128.36</ele>
        <time>2020-12-13T13:12:01.000Z</time>
      </trkpt>
      <trkpt lat="47.9687" lon="7.04264">
        <ele>1128.61</ele>
        <time>2020-12-13T13:12:18.000Z</time>
      </trkpt>
      <trkpt lat="47.96872" lon="7.04281">
        <ele>1127.18</ele>
        <time>2020-12-13T13:12:46.000Z</time>
      </trkpt>
      <trkpt lat="47.96877" lon="7.04298">
        <ele>1124.43</ele>
        <time>2020-12-13T13:12:58.000Z</time>
      </trkpt>
      <trkpt lat="47.96887" lon="7.0431">
        <ele>1121.18</ele>
        <time>2020-12-13T13:13:12.000Z</time>
      </trkpt>
      <trkpt lat="47.96896" lon="7.04321">
        <ele>1118.73</ele>
        <time>2020-12-13T13:13:22.000Z</time>
      </trkpt>
      <trkpt lat="47.96904" lon="7.04335">
        <ele>1116.43</ele>
        <time>2020-12-13T13:13:38.000Z</time>
      </trkpt>
      <trkpt lat="47.96912" lon="7.04349">
        <ele>1114.18</ele>
        <time>2020-12-13T13:13:49.000Z</time>
      </trkpt>
      <trkpt lat="47.96924" lon="7.04362">
        <ele>1112.01</ele>
        <time>2020-12-13T13:13:59.000Z</time>
      </trkpt>
      <trkpt lat="47.96932" lon="7.04376">
        <ele>1110.06</ele>
        <time>2020-12-13T13:14:09.000Z</time>
      </trkpt>
      <trkpt lat="47.96942" lon="7.0439">
        <ele>1108.28</ele>
        <time>2020-12-13T13:14:19.000Z</time>
      </trkpt>
      <trkpt lat="47.96951" lon="7.04401">
        <ele>1108.41</ele>
        <time>2020-12-13T13:15:32.000Z</time>
      </trkpt>
      <trkpt lat="47.96954" lon="7.04403">
        <ele>1110.7</ele>
        <time>2020-12-13T13:16:22.000Z</time>
      </trkpt>
    </trkseg>
  </trk>
</gpx>